KCWV

Details ICAO KCWV
Name CLAXTON EVANS CO
Region United States
Timezone America/New_York (UTC-4.0)
Plans Departing 0
Arriving 3
Stats Elevation 112 ft / 34 m (AMSL)
Location 32.195054° -81.869558°
Runways 1
Magnetic Variation 6.638° W
Sunrise 2018-05-26 10:25:13 UTC / 2018-05-26 06:25:13 Local
Sunset 2018-05-27 00:26:45 UTC / 2018-05-26 20:26:45 Local
Advertisement - Login to hide

Runways

ID Width Length Bearing (true) Bearing (mag) Surface Threshold Offset Overrun Length
09 75 ft / 23 m 4,994 ft / 1,522 m 88.77° 95.41° Asphalt 0 ft / 0 m 0 ft / 0 m
27 75 ft / 23 m 4,994 ft / 1,522 m 268.78° 275.42° Asphalt 1,000 ft / 305 m 0 ft / 0 m

Map

Weather


0- 5 10 15 20 25 30 35+ Temperature / ° C

Clouds and Precipitation
Forecast for 2018-05-26 06:00 UTC. Updated 6 hours ago

Ground ~20,000 ft ~40,000 ft Winds

METAR

KCWV 261035Z AUTO 00000KT 2 1/2SM BR CLR 22/22 A2997 RMK AO2 T02220219

TAF

Not found

Frequencies

Unicom 122.80 MHz CTAF/UNICOM
Warning: Do not use this data for real-world aviation or navigation. No guarantee of current accuracy is given.